createdAt,value
2023-02-11T00:01:45.003Z,6.68
2023-02-11T00:03:53.889Z,6.62
2023-02-11T00:05:59.528Z,6.52
2023-02-11T00:08:01.063Z,6.46
2023-02-11T00:10:04.342Z,6.54
2023-02-11T00:12:06.166Z,6.50
2023-02-11T00:14:10.292Z,6.44
2023-02-11T00:16:15.505Z,6.47
2023-02-11T00:18:17.482Z,6.50
2023-02-11T00:20:19.303Z,6.48
2023-02-11T00:22:21.202Z,6.47
2023-02-11T00:24:22.786Z,6.52
2023-02-11T00:26:27.951Z,6.54
2023-02-11T00:28:29.894Z,6.64
2023-02-11T00:30:31.654Z,6.68
2023-02-11T00:32:33.225Z,6.60
2023-02-11T00:34:35.300Z,6.60
2023-02-11T00:36:36.857Z,6.63
2023-02-11T00:38:38.463Z,6.59
2023-02-11T00:40:43.160Z,6.59
2023-02-11T00:42:46.276Z,6.50
2023-02-11T00:44:47.835Z,6.47
2023-02-11T00:46:49.397Z,6.53
2023-02-11T00:48:51.367Z,6.63
2023-02-11T00:50:54.151Z,6.60
2023-02-11T00:52:55.712Z,6.62
2023-02-11T00:54:57.457Z,6.64
2023-02-11T00:56:59.107Z,6.54
2023-02-11T00:59:02.069Z,6.49
2023-02-11T01:01:04.387Z,6.48
2023-02-11T01:03:06.260Z,6.59
2023-02-11T01:05:08.418Z,6.58
2023-02-11T01:07:10.088Z,6.59
2023-02-11T01:09:11.730Z,6.63
2023-02-11T01:11:16.713Z,6.66
2023-02-11T01:13:18.318Z,6.61
2023-02-11T01:15:22.083Z,6.63
2023-02-11T01:17:23.921Z,6.55
2023-02-11T01:19:25.539Z,6.53
2023-02-11T01:21:27.293Z,6.42
2023-02-11T01:23:29.021Z,6.37
2023-02-11T01:25:30.635Z,6.37
2023-02-11T01:27:32.552Z,6.41
2023-02-11T01:29:34.239Z,6.44
2023-02-11T01:31:37.336Z,6.37
2023-02-11T01:33:39.431Z,6.39
2023-02-11T01:35:41.628Z,6.36
2023-02-11T01:37:43.290Z,6.29
2023-02-11T01:39:44.926Z,6.32
2023-02-11T01:41:46.580Z,6.35
2023-02-11T01:43:49.921Z,6.31
2023-02-11T01:46:02.567Z,6.27
2023-02-11T01:48:05.774Z,6.23
2023-02-11T01:50:07.460Z,6.28
2023-02-11T01:52:14.657Z,6.31
2023-02-11T01:54:21.994Z,6.36
2023-02-11T01:56:25.746Z,6.31
2023-02-11T01:58:29.363Z,6.27
2023-02-11T02:00:35.010Z,6.30
2023-02-11T02:02:42.904Z,6.28
2023-02-11T02:04:52.928Z,6.30
2023-02-11T02:06:59.969Z,6.30
2023-02-11T02:09:05.454Z,6.26
2023-02-11T02:11:10.818Z,6.18
2023-02-11T02:13:15.614Z,6.25
2023-02-11T02:15:27.101Z,6.26
2023-02-11T02:17:40.678Z,6.27
2023-02-11T02:20:15.648Z,6.28
2023-02-11T02:22:58.790Z,6.26
2023-02-11T02:25:15.606Z,6.19
2023-02-11T02:27:32.901Z,6.20
2023-02-11T02:30:07.516Z,6.22
2023-02-11T02:32:47.678Z,6.24
2023-02-11T02:34:55.999Z,6.16
2023-02-11T02:37:08.102Z,6.16
2023-02-11T02:39:14.492Z,6.06
2023-02-11T02:41:21.056Z,6.10
2023-02-11T02:43:24.157Z,6.10
2023-02-11T02:45:25.701Z,6.10
2023-02-11T02:47:27.400Z,6.17
2023-02-11T02:49:31.690Z,6.24
2023-02-11T02:52:08.570Z,6.23
2023-02-11T02:54:33.540Z,6.25
2023-02-11T02:56:45.340Z,6.27
2023-02-11T02:58:56.875Z,6.21
2023-02-11T03:01:08.333Z,6.16
2023-02-11T03:03:18.991Z,6.14
2023-02-11T03:05:29.081Z,6.14
2023-02-11T03:07:40.009Z,6.09
2023-02-11T03:09:48.911Z,6.12
2023-02-11T03:11:50.532Z,6.09
2023-02-11T03:13:54.549Z,6.10
2023-02-11T03:15:58.655Z,6.12
2023-02-11T03:18:03.141Z,6.23
2023-02-11T03:20:06.952Z,6.25
2023-02-11T03:22:13.598Z,6.24
2023-02-11T03:24:20.710Z,6.14
2023-02-11T03:26:28.199Z,6.24
2023-02-11T03:28:33.338Z,6.36
2023-02-11T03:30:40.478Z,6.33
2023-02-11T03:32:49.334Z,6.31
2023-02-11T03:34:56.519Z,6.25
2023-02-11T03:37:02.210Z,6.23
2023-02-11T03:39:06.258Z,6.25
2023-02-11T03:41:11.284Z,6.21
2023-02-11T03:43:17.490Z,6.23
2023-02-11T03:45:22.159Z,6.16
2023-02-11T03:47:27.834Z,6.15
2023-02-11T03:49:32.567Z,6.14
2023-02-11T03:51:35.478Z,6.12
2023-02-11T03:53:40.626Z,6.12
2023-02-11T03:55:43.940Z,6.12
2023-02-11T03:57:47.414Z,6.13
2023-02-11T03:59:57.127Z,6.14
2023-02-11T04:02:01.639Z,6.16
2023-02-11T04:04:03.511Z,6.21
2023-02-11T04:06:05.814Z,6.18
2023-02-11T04:08:08.221Z,6.28
2023-02-11T04:10:12.157Z,6.24
2023-02-11T04:12:13.790Z,6.16
2023-02-11T04:14:16.774Z,6.16
2023-02-11T04:16:18.451Z,6.19
2023-02-11T04:18:20.045Z,6.25
2023-02-11T04:20:21.656Z,6.20
2023-02-11T04:22:23.309Z,6.18
2023-02-11T04:24:25.042Z,6.11
2023-02-11T04:26:26.792Z,6.12
2023-02-11T04:28:28.423Z,6.12
2023-02-11T04:30:31.431Z,6.11
2023-02-11T04:32:32.983Z,6.09
2023-02-11T04:34:34.709Z,6.15
2023-02-11T04:36:36.233Z,6.06
2023-02-11T04:38:37.808Z,5.99
2023-02-11T04:40:39.486Z,5.89
2023-02-11T04:42:41.409Z,5.88
2023-02-11T04:44:43.054Z,5.91
2023-02-11T04:46:45.981Z,5.97
2023-02-11T04:48:47.536Z,5.78
2023-02-11T04:50:49.109Z,5.83
2023-02-11T04:52:50.700Z,5.74
2023-02-11T04:54:52.268Z,5.76
2023-02-11T04:56:53.869Z,5.86
2023-02-11T04:58:55.504Z,5.87
2023-02-11T05:01:05.966Z,5.84
2023-02-11T05:03:09.007Z,5.77
2023-02-11T05:05:10.564Z,5.73
2023-02-11T05:07:12.144Z,5.71
2023-02-11T05:09:14.143Z,5.69
2023-02-11T05:11:18.746Z,5.64
2023-02-11T05:13:20.317Z,5.65
2023-02-11T05:15:21.863Z,5.69
2023-02-11T05:17:23.597Z,5.74
2023-02-11T05:19:26.580Z,5.79
2023-02-11T05:21:28.372Z,5.76
2023-02-11T05:23:29.937Z,5.78
2023-02-11T05:25:31.515Z,5.82
2023-02-11T05:27:33.656Z,5.77
2023-02-11T05:29:35.543Z,5.77
2023-02-11T05:31:37.066Z,5.75
2023-02-11T05:33:38.620Z,5.77
2023-02-11T05:35:41.611Z,5.75
2023-02-11T05:37:43.483Z,5.83
2023-02-11T05:39:45.193Z,5.74
2023-02-11T05:41:46.755Z,5.62
2023-02-11T05:43:48.411Z,5.64
2023-02-11T05:45:50.491Z,5.71
2023-02-11T05:47:52.374Z,5.69
2023-02-11T05:49:54.074Z,5.68
2023-02-11T05:51:59.364Z,5.72
2023-02-11T05:54:01.073Z,5.68
2023-02-11T05:56:02.855Z,5.75
2023-02-11T05:58:06.220Z,5.75
2023-02-11T06:00:09.348Z,5.84
2023-02-11T06:02:11.176Z,5.85
2023-02-11T06:04:12.828Z,5.85
2023-02-11T06:06:14.434Z,5.86
2023-02-11T06:08:17.313Z,5.85
2023-02-11T06:10:19.993Z,5.82
2023-02-11T06:12:23.254Z,5.82
2023-02-11T06:14:24.845Z,5.74
2023-02-11T06:16:26.446Z,5.76
2023-02-11T06:18:28.526Z,5.78
2023-02-11T06:20:30.291Z,5.77
2023-02-11T06:22:31.854Z,5.77
2023-02-11T06:24:58.515Z,5.77
2023-02-11T06:26:56.479Z,5.79
2023-02-11T06:28:59.709Z,5.80
2023-02-11T06:31:05.439Z,5.81
2023-02-11T06:33:07.183Z,5.72
2023-02-11T06:35:11.646Z,5.65
2023-02-11T06:37:13.561Z,5.68
2023-02-11T06:39:15.134Z,5.66
2023-02-11T06:41:19.473Z,5.66
2023-02-11T06:43:21.074Z,5.62
2023-02-11T06:45:22.663Z,5.58
2023-02-11T06:47:24.247Z,5.56
2023-02-11T06:49:25.976Z,5.53
2023-02-11T06:51:27.542Z,5.54
2023-02-11T06:53:29.204Z,5.56
2023-02-11T06:55:30.926Z,5.55
2023-02-11T06:57:33.836Z,5.53
2023-02-11T06:59:35.502Z,5.56
2023-02-11T07:01:37.115Z,5.56
2023-02-11T07:03:40.478Z,5.58
2023-02-11T07:05:42.887Z,5.53
2023-02-11T07:07:44.426Z,5.54
2023-02-11T07:09:45.994Z,5.59
2023-02-11T07:11:47.921Z,5.56
2023-02-11T07:13:51.623Z,5.55
2023-02-11T07:15:53.439Z,5.51
2023-02-11T07:17:55.249Z,5.43
2023-02-11T07:19:56.879Z,5.40
2023-02-11T07:21:58.649Z,5.45
2023-02-11T07:24:00.321Z,5.41
2023-02-11T07:26:03.785Z,5.46
2023-02-11T07:28:05.613Z,5.50
2023-02-11T07:30:13.531Z,5.58
2023-02-11T07:32:15.187Z,5.55
2023-02-11T07:34:16.772Z,5.59
2023-02-11T07:36:18.420Z,5.65
2023-02-11T07:38:20.007Z,5.63
2023-02-11T07:40:21.645Z,5.61
2023-02-11T07:42:23.283Z,5.60
2023-02-11T07:44:24.789Z,5.52
2023-02-11T07:46:28.181Z,5.57
2023-02-11T07:48:30.067Z,5.53
2023-02-11T07:50:31.663Z,5.54
2023-02-11T07:52:33.225Z,5.59
2023-02-11T07:54:34.806Z,5.69
2023-02-11T07:56:36.302Z,5.82
2023-02-11T07:58:39.009Z,5.87
2023-02-11T08:00:40.645Z,5.93
2023-02-11T08:02:46.774Z,5.95
2023-02-11T08:04:48.395Z,5.93
2023-02-11T08:06:49.984Z,5.93
2023-02-11T08:08:51.930Z,5.94
2023-02-11T08:10:53.465Z,6.05
2023-02-11T08:12:55.143Z,6.08
2023-02-11T08:14:56.702Z,6.13
2023-02-11T08:16:58.510Z,6.13
2023-02-11T08:19:03.959Z,6.13
2023-02-11T08:21:10.269Z,6.16
2023-02-11T08:23:11.794Z,6.17
2023-02-11T08:25:13.477Z,6.17
2023-02-11T08:27:15.054Z,6.25
2023-02-11T08:29:19.589Z,6.34
2023-02-11T08:31:23.384Z,6.29
2023-02-11T08:33:25.072Z,6.30
2023-02-11T08:35:28.231Z,6.36
2023-02-11T08:37:32.038Z,6.35
2023-02-11T08:39:34.569Z,6.44
2023-02-11T08:41:36.081Z,6.39
2023-02-11T08:43:37.953Z,6.51
2023-02-11T08:45:39.572Z,6.59
2023-02-11T08:47:43.464Z,6.70
2023-02-11T08:49:45.014Z,6.69
2023-02-11T08:51:48.691Z,6.84
2023-02-11T08:53:51.309Z,6.94
2023-02-11T08:55:55.042Z,7.04
2023-02-11T08:57:56.630Z,7.12
2023-02-11T08:59:58.376Z,7.22
2023-02-11T09:02:00.048Z,7.31
2023-02-11T09:04:01.708Z,7.41
2023-02-11T09:06:05.465Z,7.60
2023-02-11T09:08:08.463Z,7.72
2023-02-11T09:10:10.269Z,7.79
2023-02-11T09:12:11.837Z,7.93
2023-02-11T09:14:17.422Z,7.98
2023-02-11T09:16:21.584Z,8.05
2023-02-11T09:18:23.352Z,8.22
2023-02-11T09:20:25.526Z,8.36
2023-02-11T09:22:27.203Z,8.53
2023-02-11T09:24:30.061Z,8.64
2023-02-11T09:26:33.758Z,8.69
2023-02-11T09:28:35.437Z,8.90
2023-02-11T09:30:37.933Z,9.06
2023-02-11T09:32:39.642Z,9.20
2023-02-11T09:34:41.331Z,9.30
2023-02-11T09:36:42.960Z,9.31
2023-02-11T09:38:45.824Z,9.31
2023-02-11T09:40:50.099Z,9.32
2023-02-11T09:43:01.773Z,9.35
2023-02-11T09:45:10.772Z,9.41
2023-02-11T09:47:24.097Z,9.47
2023-02-11T09:49:34.857Z,9.42
2023-02-11T09:51:42.357Z,9.50
2023-02-11T09:53:44.045Z,9.43
2023-02-11T09:55:49.592Z,9.38
2023-02-11T09:57:51.436Z,9.32
2023-02-11T09:59:52.997Z,9.31
2023-02-11T10:01:58.790Z,9.20
2023-02-11T10:04:08.611Z,9.33
2023-02-11T10:06:25.410Z,9.31
2023-02-11T10:08:38.442Z,9.33
2023-02-11T10:10:47.689Z,9.37
2023-02-11T10:13:13.643Z,9.38
2023-02-11T10:15:24.129Z,9.46
2023-02-11T10:17:35.785Z,9.51
2023-02-11T10:20:01.474Z,9.50
2023-02-11T10:22:09.979Z,9.53
2023-02-11T10:24:14.578Z,9.51
2023-02-11T10:26:18.050Z,9.56
2023-02-11T10:28:23.382Z,9.64
2023-02-11T10:30:30.904Z,9.68
2023-02-11T10:32:39.226Z,9.73
2023-02-11T10:34:41.807Z,9.82
2023-02-11T10:36:44.868Z,9.93
2023-02-11T10:38:46.536Z,9.95
2023-02-11T10:40:48.306Z,10.01
2023-02-11T10:42:55.499Z,10.06
2023-02-11T10:45:02.416Z,10.11
2023-02-11T10:47:09.515Z,10.15
2023-02-11T10:49:35.151Z,10.30
2023-02-11T10:51:36.797Z,10.36
2023-02-11T10:53:38.854Z,10.44
2023-02-11T10:55:50.253Z,10.51
2023-02-11T10:57:57.753Z,10.55
2023-02-11T11:00:06.146Z,10.58
2023-02-11T11:02:23.390Z,10.64
2023-02-11T11:04:35.308Z,10.86
2023-02-11T11:06:36.939Z,11.06
2023-02-11T11:08:41.806Z,11.29
2023-02-11T11:10:45.956Z,11.63
2023-02-11T11:12:48.804Z,11.97
2023-02-11T11:14:54.645Z,12.14
2023-02-11T11:16:57.531Z,12.42
2023-02-11T11:19:20.428Z,12.65
2023-02-11T11:21:24.265Z,12.81
2023-02-11T11:23:27.073Z,12.93
2023-02-11T11:25:30.214Z,13.08
2023-02-11T11:27:32.547Z,13.38
2023-02-11T11:29:38.588Z,13.78
2023-02-11T11:31:49.165Z,14.11
2023-02-11T11:33:56.088Z,14.38
2023-02-11T11:36:01.206Z,14.59
2023-02-11T11:38:04.940Z,14.81
2023-02-11T11:40:10.273Z,14.70
2023-02-11T11:42:26.272Z,14.91
2023-02-11T11:44:31.512Z,14.70
2023-02-11T11:46:35.866Z,14.90
2023-02-11T11:48:40.064Z,15.09
2023-02-11T11:50:47.180Z,15.20
2023-02-11T11:52:54.231Z,15.41
2023-02-11T11:55:01.923Z,15.55
2023-02-11T11:57:12.430Z,15.64
2023-02-11T11:59:14.377Z,15.73
2023-02-11T12:01:25.684Z,15.89
2023-02-11T12:04:13.990Z,15.81
2023-02-11T12:06:27.904Z,15.87
2023-02-11T12:08:42.669Z,15.96
2023-02-11T12:11:01.643Z,16.07
2023-02-11T12:13:16.195Z,16.39
2023-02-11T12:15:31.074Z,16.72
2023-02-11T12:17:49.700Z,16.98
2023-02-11T12:20:25.779Z,17.24
2023-02-11T12:22:39.686Z,17.48
2023-02-11T12:24:54.575Z,17.58
2023-02-11T12:27:01.237Z,17.44
2023-02-11T12:29:13.876Z,17.24
2023-02-11T12:31:27.837Z,17.09
2023-02-11T12:33:42.769Z,16.91
2023-02-11T12:35:56.450Z,16.59
2023-02-11T12:38:32.252Z,16.29
2023-02-11T12:40:43.621Z,16.01
2023-02-11T12:42:55.494Z,15.77
2023-02-11T12:45:12.300Z,15.48
2023-02-11T12:47:22.836Z,15.24
2023-02-11T12:49:38.134Z,15.08
2023-02-11T12:52:03.146Z,14.86
2023-02-11T12:54:20.315Z,14.54
2023-02-11T12:56:29.444Z,14.31
2023-02-11T12:58:44.892Z,14.18
2023-02-11T13:00:54.161Z,14.03
2023-02-11T13:03:02.673Z,13.95
2023-02-11T13:05:14.357Z,13.88
2023-02-11T13:07:23.550Z,13.91
2023-02-11T13:09:32.358Z,13.47
2023-02-11T13:11:38.603Z,13.09
2023-02-11T13:13:50.523Z,12.98
2023-02-11T13:15:56.077Z,13.00
2023-02-11T13:18:04.368Z,13.03
2023-02-11T13:20:18.090Z,12.98
2023-02-11T13:22:24.348Z,12.94
2023-02-11T13:24:36.890Z,12.93
2023-02-11T13:26:46.071Z,12.89
2023-02-11T13:28:54.495Z,12.95
2023-02-11T13:30:56.658Z,13.02
2023-02-11T13:33:20.935Z,12.91
2023-02-11T13:35:28.864Z,12.90
2023-02-11T13:37:36.136Z,12.85
2023-02-11T13:39:39.333Z,12.78
2023-02-11T13:41:41.930Z,12.80
2023-02-11T13:43:44.867Z,12.77
2023-02-11T13:45:48.428Z,12.74
2023-02-11T13:47:56.899Z,12.77
2023-02-11T13:50:01.447Z,12.77
2023-02-11T13:52:05.841Z,12.76
2023-02-11T13:54:17.334Z,12.74
2023-02-11T13:56:31.620Z,12.74
2023-02-11T13:58:38.055Z,12.75
2023-02-11T14:00:45.387Z,12.75
2023-02-11T14:03:24.019Z,12.72
2023-02-11T14:05:30.949Z,12.65
2023-02-11T14:07:33.791Z,12.60
2023-02-11T14:09:40.561Z,12.63
2023-02-11T14:11:47.264Z,12.57
2023-02-11T14:14:34.391Z,12.42
2023-02-11T14:17:11.254Z,12.43
2023-02-11T14:19:31.253Z,12.46
2023-02-11T14:21:36.387Z,12.43
2023-02-11T14:23:38.071Z,12.46
2023-02-11T14:25:43.569Z,12.45
2023-02-11T14:27:55.281Z,12.50
2023-02-11T14:30:31.857Z,12.56
2023-02-11T14:32:42.593Z,12.48
2023-02-11T14:34:55.697Z,12.46
2023-02-11T14:37:14.565Z,12.44
2023-02-11T14:39:25.469Z,12.39
2023-02-11T14:41:29.594Z,12.34
2023-02-11T14:43:37.532Z,12.32
2023-02-11T14:45:39.615Z,12.30
2023-02-11T14:47:45.136Z,12.24
2023-02-11T14:49:49.301Z,12.22
2023-02-11T14:51:52.648Z,12.21
2023-02-11T14:53:58.515Z,12.21
2023-02-11T14:56:00.354Z,12.16
2023-02-11T14:58:06.737Z,12.17
2023-02-11T15:00:18.194Z,12.16
2023-02-11T15:02:25.573Z,12.09
2023-02-11T15:04:29.793Z,12.04
2023-02-11T15:06:36.547Z,12.02
2023-02-11T15:08:43.495Z,11.99
2023-02-11T15:10:45.542Z,12.00
2023-02-11T15:12:47.459Z,11.98
2023-02-11T15:14:50.976Z,11.98
2023-02-11T15:16:55.926Z,11.99
2023-02-11T15:19:02.264Z,11.97
2023-02-11T15:21:05.206Z,11.95
2023-02-11T15:23:17.584Z,11.99
2023-02-11T15:25:19.443Z,11.97
2023-02-11T15:27:21.119Z,11.96
2023-02-11T15:29:24.439Z,11.91
2023-02-11T15:31:27.931Z,11.87
2023-02-11T15:33:30.834Z,11.74
2023-02-11T15:35:34.495Z,11.67
2023-02-11T15:37:36.106Z,11.67
2023-02-11T15:39:41.017Z,11.70
2023-02-11T15:41:42.689Z,11.71
2023-02-11T15:43:46.807Z,11.67
2023-02-11T15:45:59.192Z,11.71
2023-02-11T15:48:06.833Z,11.73
2023-02-11T15:50:21.072Z,11.76
2023-02-11T15:52:26.292Z,11.71
2023-02-11T15:54:30.920Z,11.64
2023-02-11T15:56:38.552Z,11.61
2023-02-11T15:58:42.522Z,11.58
2023-02-11T16:00:47.399Z,11.55
2023-02-11T16:02:49.450Z,11.64
2023-02-11T16:04:54.328Z,11.61
2023-02-11T16:06:56.825Z,11.56
2023-02-11T16:09:01.086Z,11.55
2023-02-11T16:11:04.765Z,11.53
2023-02-11T16:13:20.015Z,11.53
2023-02-11T16:15:43.064Z,11.51
2023-02-11T16:17:44.804Z,11.46
2023-02-11T16:19:48.483Z,11.49
2023-02-11T16:21:50.939Z,11.49
2023-02-11T16:23:54.849Z,11.48
2023-02-11T16:26:03.497Z,11.48
2023-02-11T16:28:05.509Z,11.50
2023-02-11T16:30:26.461Z,11.52
2023-02-11T16:32:30.114Z,11.55
2023-02-11T16:34:31.758Z,11.54
2023-02-11T16:36:33.343Z,11.61
2023-02-11T16:38:35.391Z,11.66
2023-02-11T16:40:36.937Z,11.63
2023-02-11T16:42:38.600Z,11.61
2023-02-11T16:44:40.494Z,11.61
2023-02-11T16:46:43.931Z,11.58
2023-02-11T16:48:45.959Z,11.57
2023-02-11T16:50:51.500Z,11.58
2023-02-11T16:52:54.904Z,11.58
2023-02-11T16:54:56.558Z,11.58
2023-02-11T16:56:58.180Z,11.56
2023-02-11T16:58:59.846Z,11.55
2023-02-11T17:01:01.604Z,11.56
2023-02-11T17:03:07.732Z,11.61
2023-02-11T17:05:18.205Z,11.57
2023-02-11T17:07:19.924Z,11.57
2023-02-11T17:09:24.576Z,11.58
2023-02-11T17:11:26.546Z,11.57
2023-02-11T17:13:28.220Z,11.59
2023-02-11T17:15:29.894Z,11.59
2023-02-11T17:17:36.692Z,11.57
2023-02-11T17:19:40.133Z,11.54
2023-02-11T17:21:42.288Z,11.54
2023-02-11T17:23:43.858Z,11.54
2023-02-11T17:25:45.997Z,11.48
2023-02-11T17:27:47.623Z,11.46
2023-02-11T17:29:49.392Z,11.47
2023-02-11T17:31:52.608Z,11.47
2023-02-11T17:33:54.239Z,11.49
2023-02-11T17:35:57.210Z,11.41
2023-02-11T17:37:59.027Z,11.44
2023-02-11T17:40:00.643Z,11.38
2023-02-11T17:42:02.538Z,11.38
2023-02-11T17:44:04.676Z,11.38
2023-02-11T17:46:07.388Z,11.37
2023-02-11T17:48:08.973Z,11.38
2023-02-11T17:50:11.154Z,11.36
2023-02-11T17:52:14.212Z,11.34
2023-02-11T17:54:20.394Z,11.33
2023-02-11T17:56:22.076Z,11.31
2023-02-11T17:58:23.783Z,11.24
2023-02-11T18:00:25.773Z,11.33
2023-02-11T18:02:27.648Z,11.19
2023-02-11T18:04:29.959Z,11.17
2023-02-11T18:06:31.859Z,11.18
2023-02-11T18:08:38.395Z,11.17
2023-02-11T18:10:41.583Z,11.14
2023-02-11T18:12:43.236Z,11.06
2023-02-11T18:14:44.879Z,11.05
2023-02-11T18:16:50.264Z,11.03
2023-02-11T18:18:51.891Z,11.04
2023-02-11T18:20:57.595Z,11.00
2023-02-11T18:22:59.653Z,11.03
2023-02-11T18:25:02.658Z,11.05
2023-02-11T18:27:04.311Z,11.09
2023-02-11T18:29:06.094Z,11.09
2023-02-11T18:31:09.507Z,11.08
2023-02-11T18:33:11.447Z,11.10
2023-02-11T18:35:15.006Z,11.06
2023-02-11T18:37:16.781Z,11.08
2023-02-11T18:39:19.183Z,11.08
2023-02-11T18:41:22.285Z,11.07
2023-02-11T18:43:24.301Z,11.08
2023-02-11T18:45:26.047Z,11.07
2023-02-11T18:47:30.702Z,11.11
2023-02-11T18:49:33.256Z,11.13
2023-02-11T18:51:34.889Z,11.13
2023-02-11T18:53:37.179Z,11.12
2023-02-11T18:55:39.388Z,11.11
2023-02-11T18:57:42.456Z,11.07
2023-02-11T18:59:46.917Z,11.03
2023-02-11T19:01:48.502Z,11.00
2023-02-11T19:03:50.492Z,10.92
2023-02-11T19:05:52.582Z,10.90
2023-02-11T19:07:56.141Z,10.93
2023-02-11T19:09:57.885Z,10.98
2023-02-11T19:12:01.640Z,11.01
2023-02-11T19:14:09.286Z,11.02
2023-02-11T19:16:11.934Z,11.01
2023-02-11T19:18:15.062Z,11.01
2023-02-11T19:20:16.993Z,11.04
2023-02-11T19:22:21.521Z,11.00
2023-02-11T19:24:24.292Z,11.01
2023-02-11T19:26:27.036Z,11.03
2023-02-11T19:28:28.719Z,11.04
2023-02-11T19:30:32.050Z,11.02
2023-02-11T19:32:33.792Z,11.00
2023-02-11T19:34:37.210Z,11.02
2023-02-11T19:36:42.402Z,11.03
2023-02-11T19:38:45.092Z,11.01
2023-02-11T19:40:54.803Z,11.03
2023-02-11T19:42:56.868Z,11.00
2023-02-11T19:44:58.846Z,10.99
2023-02-11T19:47:02.189Z,10.95
2023-02-11T19:49:05.077Z,10.98
2023-02-11T19:51:13.082Z,10.96
2023-02-11T19:53:15.334Z,10.98
2023-02-11T19:55:17.329Z,10.94
2023-02-11T19:57:21.868Z,10.93
2023-02-11T19:59:23.922Z,10.95
2023-02-11T20:01:26.289Z,10.91
2023-02-11T20:03:29.453Z,10.89
2023-02-11T20:05:31.195Z,10.89
2023-02-11T20:07:32.823Z,10.93
2023-02-11T20:09:34.539Z,10.97
2023-02-11T20:11:40.749Z,11.01
2023-02-11T20:13:42.829Z,11.03
2023-02-11T20:15:46.567Z,11.03
2023-02-11T20:17:48.902Z,11.01
2023-02-11T20:19:52.160Z,10.99
2023-02-11T20:21:54.898Z,11.01
2023-02-11T20:23:57.156Z,11.02
2023-02-11T20:25:58.809Z,11.00
2023-02-11T20:28:00.523Z,10.99
2023-02-11T20:30:02.270Z,10.94
2023-02-11T20:32:04.840Z,10.93
2023-02-11T20:34:06.678Z,10.92
2023-02-11T20:36:12.613Z,10.94
2023-02-11T20:38:15.820Z,10.91
2023-02-11T20:40:18.029Z,10.90
2023-02-11T20:42:19.699Z,10.88
2023-02-11T20:44:23.304Z,10.85
2023-02-11T20:46:27.880Z,10.84
2023-02-11T20:48:30.366Z,10.84
2023-02-11T20:50:33.551Z,10.88
2023-02-11T20:52:36.549Z,10.90
2023-02-11T20:54:38.453Z,10.88
2023-02-11T20:56:40.198Z,10.88
2023-02-11T20:58:42.103Z,10.88
2023-02-11T21:00:43.887Z,10.86
2023-02-11T21:02:45.649Z,10.85
2023-02-11T21:04:47.309Z,10.83
2023-02-11T21:06:52.852Z,10.86
2023-02-11T21:08:55.894Z,10.86
2023-02-11T21:10:58.182Z,10.87
2023-02-11T21:13:00.159Z,10.87
2023-02-11T21:15:06.659Z,10.86
2023-02-11T21:17:08.458Z,10.86
2023-02-11T21:19:10.391Z,10.87
2023-02-11T21:21:12.196Z,10.83
2023-02-11T21:23:13.854Z,10.86
2023-02-11T21:25:17.308Z,10.83
2023-02-11T21:27:20.155Z,10.86
2023-02-11T21:29:22.210Z,10.83
2023-02-11T21:31:31.540Z,10.88
2023-02-11T21:33:33.467Z,10.78
2023-02-11T21:35:36.380Z,10.82
2023-02-11T21:37:38.266Z,10.83
2023-02-11T21:39:39.994Z,10.78
2023-02-11T21:41:43.121Z,10.80
2023-02-11T21:43:45.328Z,10.80
2023-02-11T21:45:49.670Z,10.76
2023-02-11T21:47:51.774Z,10.75
2023-02-11T21:49:53.498Z,10.76
2023-02-11T21:52:00.632Z,10.77
2023-02-11T21:54:02.718Z,10.74
2023-02-11T21:56:06.775Z,10.74
2023-02-11T21:58:12.209Z,10.73
2023-02-11T22:00:16.365Z,10.75
2023-02-11T22:02:18.258Z,10.71
2023-02-11T22:04:20.071Z,10.65
2023-02-11T22:06:23.863Z,10.65
2023-02-11T22:08:43.511Z,10.65
2023-02-11T22:10:45.173Z,10.62
2023-02-11T22:12:47.152Z,10.55
2023-02-11T22:14:50.482Z,10.51
2023-02-11T22:16:52.421Z,10.43
2023-02-11T22:18:56.006Z,10.44
2023-02-11T22:20:59.778Z,10.49
2023-02-11T22:23:01.478Z,10.51
2023-02-11T22:25:03.299Z,10.49
2023-02-11T22:27:05.635Z,10.52
2023-02-11T22:29:07.301Z,10.59
2023-02-11T22:31:12.397Z,10.60
2023-02-11T22:33:14.536Z,10.59
2023-02-11T22:35:16.239Z,10.60
2023-02-11T22:37:17.877Z,10.60
2023-02-11T22:39:19.910Z,10.59
2023-02-11T22:41:24.051Z,10.62
2023-02-11T22:43:27.192Z,10.62
2023-02-11T22:45:28.806Z,10.61
2023-02-11T22:47:31.856Z,10.64
2023-02-11T22:49:33.622Z,10.63
2023-02-11T22:51:36.455Z,10.67
2023-02-11T22:53:38.890Z,10.68
2023-02-11T22:55:40.542Z,10.63
2023-02-11T22:57:42.423Z,10.61
2023-02-11T22:59:44.310Z,10.60
2023-02-11T23:01:46.801Z,10.60
2023-02-11T23:03:55.560Z,10.58
2023-02-11T23:06:01.531Z,10.57
2023-02-11T23:08:03.406Z,10.53
2023-02-11T23:10:06.373Z,10.49
2023-02-11T23:12:08.890Z,10.46
2023-02-11T23:14:10.558Z,10.47
2023-02-11T23:16:14.956Z,10.42
2023-02-11T23:18:16.746Z,10.44
2023-02-11T23:20:20.761Z,10.47
2023-02-11T23:22:22.383Z,10.46
2023-02-11T23:24:26.817Z,10.48
2023-02-11T23:26:28.756Z,10.52
2023-02-11T23:28:30.802Z,10.51
2023-02-11T23:30:34.826Z,10.54
2023-02-11T23:32:38.414Z,10.54
2023-02-11T23:34:40.073Z,10.53
2023-02-11T23:36:43.196Z,10.52
2023-02-11T23:38:45.795Z,10.51
2023-02-11T23:40:47.457Z,10.51
2023-02-11T23:42:52.844Z,10.51
2023-02-11T23:44:54.460Z,10.52
2023-02-11T23:46:56.359Z,10.56
2023-02-11T23:48:58.622Z,10.58
2023-02-11T23:51:00.603Z,10.56
2023-02-11T23:53:03.705Z,10.57
2023-02-11T23:55:06.028Z,10.59
2023-02-11T23:57:07.933Z,10.59
2023-02-11T23:59:09.599Z,10.58
